sensor_id;sensor_type;location;lat;lon;timestamp;P1;durP1;ratioP1;P2;durP2;ratioP2
25015;SDS011;13029;46.286;7.488;2022-09-09T00:00:32;2.97;;;0.80;;
25015;SDS011;13029;46.286;7.488;2022-09-09T00:03:10;1.35;;;0.55;;
25015;SDS011;13029;46.286;7.488;2022-09-09T00:05:47;3.60;;;0.63;;
25015;SDS011;13029;46.286;7.488;2022-09-09T00:11:15;2.45;;;0.60;;
25015;SDS011;13029;46.286;7.488;2022-09-09T00:13:46;3.72;;;0.80;;
25015;SDS011;13029;46.286;7.488;2022-09-09T00:16:15;3.25;;;0.70;;
25015;SDS011;13029;46.286;7.488;2022-09-09T00:24:41;1.50;;;0.73;;
25015;SDS011;13029;46.286;7.488;2022-09-09T00:27:14;1.90;;;0.70;;
25015;SDS011;13029;46.286;7.488;2022-09-09T00:29:43;0.90;;;0.60;;
25015;SDS011;13029;46.286;7.488;2022-09-09T00:32:13;1.83;;;0.57;;
25015;SDS011;13029;46.286;7.488;2022-09-09T00:34:53;1.73;;;0.68;;
25015;SDS011;13029;46.286;7.488;2022-09-09T00:37:21;0.75;;;0.68;;
25015;SDS011;13029;46.286;7.488;2022-09-09T00:39:48;0.55;;;0.40;;
25015;SDS011;13029;46.286;7.488;2022-09-09T00:42:24;4.22;;;0.90;;
25015;SDS011;13029;46.286;7.488;2022-09-09T00:45:18;1.55;;;0.80;;
25015;SDS011;13029;46.286;7.488;2022-09-09T00:47:53;1.13;;;0.57;;
25015;SDS011;13029;46.286;7.488;2022-09-09T00:53:02;2.17;;;0.52;;
25015;SDS011;13029;46.286;7.488;2022-09-09T00:55:45;0.73;;;0.52;;
25015;SDS011;13029;46.286;7.488;2022-09-09T00:58:13;2.42;;;0.50;;
25015;SDS011;13029;46.286;7.488;2022-09-09T01:03:31;1.55;;;0.70;;
25015;SDS011;13029;46.286;7.488;2022-09-09T01:14:34;2.35;;;0.60;;
25015;SDS011;13029;46.286;7.488;2022-09-09T01:17:28;2.53;;;0.80;;
25015;SDS011;13029;46.286;7.488;2022-09-09T01:22:40;1.80;;;0.65;;
25015;SDS011;13029;46.286;7.488;2022-09-09T01:25:18;1.58;;;0.70;;
25015;SDS011;13029;46.286;7.488;2022-09-09T01:27:44;2.67;;;0.60;;
25015;SDS011;13029;46.286;7.488;2022-09-09T01:30:12;1.20;;;0.60;;
25015;SDS011;13029;46.286;7.488;2022-09-09T01:32:49;3.30;;;0.77;;
25015;SDS011;13029;46.286;7.488;2022-09-09T01:35:29;1.17;;;0.65;;
25015;SDS011;13029;46.286;7.488;2022-09-09T01:37:57;0.98;;;0.70;;
25015;SDS011;13029;46.286;7.488;2022-09-09T01:40:23;1.35;;;0.68;;
25015;SDS011;13029;46.286;7.488;2022-09-09T01:42:49;1.92;;;0.70;;
25015;SDS011;13029;46.286;7.488;2022-09-09T01:45:14;1.70;;;0.65;;
25015;SDS011;13029;46.286;7.488;2022-09-09T01:47:40;1.30;;;0.65;;
25015;SDS011;13029;46.286;7.488;2022-09-09T01:50:06;1.20;;;0.55;;
25015;SDS011;13029;46.286;7.488;2022-09-09T01:52:33;2.95;;;0.82;;
25015;SDS011;13029;46.286;7.488;2022-09-09T01:55:00;1.05;;;0.70;;
25015;SDS011;13029;46.286;7.488;2022-09-09T01:57:31;0.90;;;0.50;;
25015;SDS011;13029;46.286;7.488;2022-09-09T02:08:45;1.08;;;0.60;;
25015;SDS011;13029;46.286;7.488;2022-09-09T02:11:16;1.83;;;0.60;;
25015;SDS011;13029;46.286;7.488;2022-09-09T02:13:43;3.03;;;1.65;;
25015;SDS011;13029;46.286;7.488;2022-09-09T02:16:31;1.48;;;0.80;;
25015;SDS011;13029;46.286;7.488;2022-09-09T02:19:19;1.40;;;0.63;;
25015;SDS011;13029;46.286;7.488;2022-09-09T02:21:50;2.35;;;0.60;;
25015;SDS011;13029;46.286;7.488;2022-09-09T02:24:18;1.58;;;0.60;;
25015;SDS011;13029;46.286;7.488;2022-09-09T02:26:44;1.42;;;0.70;;
25015;SDS011;13029;46.286;7.488;2022-09-09T02:29:16;0.93;;;0.82;;
25015;SDS011;13029;46.286;7.488;2022-09-09T02:31:46;2.58;;;0.75;;
25015;SDS011;13029;46.286;7.488;2022-09-09T02:34:12;1.77;;;0.80;;
25015;SDS011;13029;46.286;7.488;2022-09-09T02:36:38;3.13;;;0.70;;
25015;SDS011;13029;46.286;7.488;2022-09-09T02:39:05;2.83;;;0.80;;
25015;SDS011;13029;46.286;7.488;2022-09-09T02:41:33;1.40;;;0.70;;
25015;SDS011;13029;46.286;7.488;2022-09-09T02:43:59;0.68;;;0.68;;
25015;SDS011;13029;46.286;7.488;2022-09-09T02:51:46;1.90;;;0.77;;
25015;SDS011;13029;46.286;7.488;2022-09-09T02:54:26;2.03;;;0.90;;
25015;SDS011;13029;46.286;7.488;2022-09-09T02:57:03;2.55;;;0.95;;
25015;SDS011;13029;46.286;7.488;2022-09-09T02:59:30;2.90;;;0.95;;
25015;SDS011;13029;46.286;7.488;2022-09-09T03:01:56;3.60;;;1.05;;
25015;SDS011;13029;46.286;7.488;2022-09-09T03:04:21;2.05;;;0.90;;
25015;SDS011;13029;46.286;7.488;2022-09-09T03:06:47;3.95;;;0.93;;
25015;SDS011;13029;46.286;7.488;2022-09-09T03:09:12;2.35;;;1.00;;
25015;SDS011;13029;46.286;7.488;2022-09-09T03:11:38;2.05;;;0.93;;
25015;SDS011;13029;46.286;7.488;2022-09-09T03:14:03;2.53;;;1.20;;
25015;SDS011;13029;46.286;7.488;2022-09-09T03:16:29;4.43;;;1.08;;
25015;SDS011;13029;46.286;7.488;2022-09-09T03:18:54;3.70;;;1.10;;
25015;SDS011;13029;46.286;7.488;2022-09-09T03:21:20;1.67;;;0.90;;
25015;SDS011;13029;46.286;7.488;2022-09-09T03:23:45;3.17;;;1.40;;
25015;SDS011;13029;46.286;7.488;2022-09-09T03:26:11;3.90;;;1.13;;
25015;SDS011;13029;46.286;7.488;2022-09-09T03:28:36;1.48;;;0.82;;
25015;SDS011;13029;46.286;7.488;2022-09-09T03:31:03;4.93;;;0.95;;
25015;SDS011;13029;46.286;7.488;2022-09-09T03:33:29;1.58;;;0.98;;
25015;SDS011;13029;46.286;7.488;2022-09-09T03:35:56;1.70;;;1.00;;
25015;SDS011;13029;46.286;7.488;2022-09-09T03:38:24;3.17;;;0.90;;
25015;SDS011;13029;46.286;7.488;2022-09-09T03:40:50;3.25;;;1.15;;
25015;SDS011;13029;46.286;7.488;2022-09-09T03:43:16;2.60;;;0.93;;
25015;SDS011;13029;46.286;7.488;2022-09-09T03:45:45;2.78;;;0.77;;
25015;SDS011;13029;46.286;7.488;2022-09-09T03:50:37;2.95;;;1.27;;
25015;SDS011;13029;46.286;7.488;2022-09-09T03:53:02;3.28;;;0.73;;
25015;SDS011;13029;46.286;7.488;2022-09-09T03:55:28;3.42;;;0.98;;
25015;SDS011;13029;46.286;7.488;2022-09-09T03:57:53;3.47;;;0.90;;
25015;SDS011;13029;46.286;7.488;2022-09-09T04:00:18;3.03;;;1.10;;
25015;SDS011;13029;46.286;7.488;2022-09-09T04:02:44;1.40;;;0.80;;
25015;SDS011;13029;46.286;7.488;2022-09-09T04:05:10;2.22;;;0.93;;
25015;SDS011;13029;46.286;7.488;2022-09-09T04:07:36;1.40;;;0.90;;
25015;SDS011;13029;46.286;7.488;2022-09-09T04:10:01;1.58;;;0.82;;
25015;SDS011;13029;46.286;7.488;2022-09-09T04:12:27;1.30;;;0.90;;
25015;SDS011;13029;46.286;7.488;2022-09-09T04:14:52;2.47;;;1.00;;
25015;SDS011;13029;46.286;7.488;2022-09-09T04:17:17;3.25;;;1.10;;
25015;SDS011;13029;46.286;7.488;2022-09-09T04:19:42;2.05;;;0.70;;
25015;SDS011;13029;46.286;7.488;2022-09-09T04:22:08;3.17;;;1.00;;
25015;SDS011;13029;46.286;7.488;2022-09-09T04:24:33;2.30;;;0.90;;
25015;SDS011;13029;46.286;7.488;2022-09-09T04:27:00;2.75;;;0.90;;
25015;SDS011;13029;46.286;7.488;2022-09-09T04:29:25;1.63;;;0.77;;
25015;SDS011;13029;46.286;7.488;2022-09-09T04:31:50;1.73;;;1.13;;
25015;SDS011;13029;46.286;7.488;2022-09-09T04:34:16;3.00;;;0.90;;
25015;SDS011;13029;46.286;7.488;2022-09-09T04:36:41;2.53;;;0.95;;
25015;SDS011;13029;46.286;7.488;2022-09-09T04:39:06;3.72;;;1.00;;
25015;SDS011;13029;46.286;7.488;2022-09-09T04:41:32;3.90;;;0.88;;
25015;SDS011;13029;46.286;7.488;2022-09-09T04:43:57;3.20;;;1.10;;
25015;SDS011;13029;46.286;7.488;2022-09-09T04:46:23;3.97;;;0.90;;
25015;SDS011;13029;46.286;7.488;2022-09-09T04:48:49;5.28;;;0.85;;
25015;SDS011;13029;46.286;7.488;2022-09-09T04:51:15;4.97;;;1.13;;
25015;SDS011;13029;46.286;7.488;2022-09-09T04:53:40;6.53;;;1.58;;
25015;SDS011;13029;46.286;7.488;2022-09-09T04:58:32;4.72;;;0.70;;
25015;SDS011;13029;46.286;7.488;2022-09-09T05:01:11;2.35;;;1.00;;
25015;SDS011;13029;46.286;7.488;2022-09-09T05:03:42;1.65;;;1.00;;
25015;SDS011;13029;46.286;7.488;2022-09-09T05:06:08;4.43;;;1.17;;
25015;SDS011;13029;46.286;7.488;2022-09-09T05:08:36;4.63;;;1.10;;
25015;SDS011;13029;46.286;7.488;2022-09-09T05:11:02;1.67;;;0.82;;
25015;SDS011;13029;46.286;7.488;2022-09-09T05:13:28;4.90;;;0.80;;
25015;SDS011;13029;46.286;7.488;2022-09-09T05:15:54;3.47;;;0.90;;
25015;SDS011;13029;46.286;7.488;2022-09-09T05:18:19;3.63;;;1.35;;
25015;SDS011;13029;46.286;7.488;2022-09-09T05:20:45;2.50;;;1.08;;
25015;SDS011;13029;46.286;7.488;2022-09-09T05:23:10;1.40;;;1.00;;
25015;SDS011;13029;46.286;7.488;2022-09-09T05:25:39;5.65;;;0.93;;
25015;SDS011;13029;46.286;7.488;2022-09-09T05:28:05;3.33;;;1.45;;
25015;SDS011;13029;46.286;7.488;2022-09-09T05:30:32;3.50;;;0.80;;
25015;SDS011;13029;46.286;7.488;2022-09-09T05:32:57;3.33;;;1.08;;
25015;SDS011;13029;46.286;7.488;2022-09-09T05:35:22;6.03;;;1.40;;
25015;SDS011;13029;46.286;7.488;2022-09-09T05:37:48;3.38;;;1.13;;
25015;SDS011;13029;46.286;7.488;2022-09-09T05:40:14;3.90;;;0.82;;
25015;SDS011;13029;46.286;7.488;2022-09-09T05:42:39;4.38;;;1.25;;
25015;SDS011;13029;46.286;7.488;2022-09-09T05:45:06;3.63;;;0.80;;
25015;SDS011;13029;46.286;7.488;2022-09-09T05:47:32;6.63;;;1.77;;
25015;SDS011;13029;46.286;7.488;2022-09-09T05:49:58;4.40;;;1.00;;
25015;SDS011;13029;46.286;7.488;2022-09-09T05:52:23;1.67;;;0.88;;
25015;SDS011;13029;46.286;7.488;2022-09-09T05:54:50;2.50;;;1.23;;
25015;SDS011;13029;46.286;7.488;2022-09-09T05:57:15;7.90;;;3.03;;
25015;SDS011;13029;46.286;7.488;2022-09-09T05:59:41;4.30;;;2.90;;
25015;SDS011;13029;46.286;7.488;2022-09-09T06:02:07;2.92;;;2.53;;
25015;SDS011;13029;46.286;7.488;2022-09-09T06:04:33;7.88;;;3.25;;
25015;SDS011;13029;46.286;7.488;2022-09-09T06:06:59;2.25;;;1.48;;
25015;SDS011;13029;46.286;7.488;2022-09-09T06:09:24;5.70;;;1.80;;
25015;SDS011;13029;46.286;7.488;2022-09-09T06:11:50;5.80;;;2.03;;
25015;SDS011;13029;46.286;7.488;2022-09-09T06:14:15;4.18;;;1.23;;
25015;SDS011;13029;46.286;7.488;2022-09-09T06:16:43;3.85;;;1.27;;
25015;SDS011;13029;46.286;7.488;2022-09-09T06:19:09;5.25;;;0.93;;
25015;SDS011;13029;46.286;7.488;2022-09-09T06:21:34;4.15;;;1.30;;
25015;SDS011;13029;46.286;7.488;2022-09-09T06:24:02;2.80;;;1.10;;
25015;SDS011;13029;46.286;7.488;2022-09-09T06:26:29;2.78;;;0.85;;
25015;SDS011;13029;46.286;7.488;2022-09-09T06:28:59;3.10;;;1.20;;
25015;SDS011;13029;46.286;7.488;2022-09-09T06:31:25;4.70;;;1.48;;
25015;SDS011;13029;46.286;7.488;2022-09-09T06:33:53;2.42;;;1.00;;
25015;SDS011;13029;46.286;7.488;2022-09-09T06:36:21;2.72;;;1.15;;
25015;SDS011;13029;46.286;7.488;2022-09-09T06:38:47;3.22;;;0.93;;
25015;SDS011;13029;46.286;7.488;2022-09-09T06:41:14;2.97;;;1.10;;
25015;SDS011;13029;46.286;7.488;2022-09-09T06:43:41;2.95;;;1.30;;
25015;SDS011;13029;46.286;7.488;2022-09-09T06:46:08;1.80;;;1.13;;
25015;SDS011;13029;46.286;7.488;2022-09-09T06:48:36;2.97;;;1.05;;
25015;SDS011;13029;46.286;7.488;2022-09-09T06:53:31;1.92;;;1.10;;
25015;SDS011;13029;46.286;7.488;2022-09-09T06:56:01;1.63;;;1.30;;
25015;SDS011;13029;46.286;7.488;2022-09-09T06:58:36;2.20;;;1.27;;
25015;SDS011;13029;46.286;7.488;2022-09-09T07:01:05;2.53;;;1.20;;
25015;SDS011;13029;46.286;7.488;2022-09-09T07:03:31;4.75;;;1.25;;
25015;SDS011;13029;46.286;7.488;2022-09-09T07:05:57;5.63;;;1.40;;
25015;SDS011;13029;46.286;7.488;2022-09-09T07:08:23;3.15;;;1.38;;
25015;SDS011;13029;46.286;7.488;2022-09-09T07:10:49;4.93;;;1.10;;
25015;SDS011;13029;46.286;7.488;2022-09-09T07:13:16;4.90;;;1.75;;
25015;SDS011;13029;46.286;7.488;2022-09-09T07:15:41;3.85;;;1.42;;
25015;SDS011;13029;46.286;7.488;2022-09-09T07:18:07;6.22;;;1.63;;
25015;SDS011;13029;46.286;7.488;2022-09-09T07:20:34;5.00;;;1.63;;
25015;SDS011;13029;46.286;7.488;2022-09-09T07:23:00;5.05;;;1.67;;
25015;SDS011;13029;46.286;7.488;2022-09-09T07:25:25;5.28;;;1.75;;
25015;SDS011;13029;46.286;7.488;2022-09-09T07:27:53;6.20;;;1.92;;
25015;SDS011;13029;46.286;7.488;2022-09-09T07:30:19;5.60;;;1.70;;
25015;SDS011;13029;46.286;7.488;2022-09-09T07:32:45;8.27;;;1.70;;
25015;SDS011;13029;46.286;7.488;2022-09-09T07:35:10;6.18;;;1.70;;
25015;SDS011;13029;46.286;7.488;2022-09-09T07:37:36;6.55;;;1.40;;
25015;SDS011;13029;46.286;7.488;2022-09-09T07:40:02;4.63;;;1.40;;
25015;SDS011;13029;46.286;7.488;2022-09-09T07:42:28;7.07;;;1.50;;
25015;SDS011;13029;46.286;7.488;2022-09-09T07:44:54;2.80;;;1.40;;
25015;SDS011;13029;46.286;7.488;2022-09-09T07:47:20;8.55;;;1.70;;
25015;SDS011;13029;46.286;7.488;2022-09-09T07:49:45;5.85;;;1.70;;
25015;SDS011;13029;46.286;7.488;2022-09-09T07:52:11;3.83;;;1.65;;
25015;SDS011;13029;46.286;7.488;2022-09-09T07:54:37;7.72;;;1.50;;
25015;SDS011;13029;46.286;7.488;2022-09-09T07:57:02;6.43;;;1.50;;
25015;SDS011;13029;46.286;7.488;2022-09-09T07:59:29;7.20;;;1.65;;
25015;SDS011;13029;46.286;7.488;2022-09-09T08:01:55;7.70;;;1.50;;
25015;SDS011;13029;46.286;7.488;2022-09-09T08:04:21;4.55;;;1.63;;
25015;SDS011;13029;46.286;7.488;2022-09-09T08:06:51;4.13;;;1.42;;
25015;SDS011;13029;46.286;7.488;2022-09-09T08:09:19;9.45;;;1.70;;
25015;SDS011;13029;46.286;7.488;2022-09-09T08:11:44;6.97;;;2.10;;
25015;SDS011;13029;46.286;7.488;2022-09-09T08:14:10;2.97;;;1.88;;
25015;SDS011;13029;46.286;7.488;2022-09-09T08:16:37;7.85;;;1.70;;
25015;SDS011;13029;46.286;7.488;2022-09-09T08:19:04;6.35;;;1.70;;
25015;SDS011;13029;46.286;7.488;2022-09-09T08:21:31;3.67;;;1.88;;
25015;SDS011;13029;46.286;7.488;2022-09-09T08:23:58;3.28;;;1.48;;
25015;SDS011;13029;46.286;7.488;2022-09-09T08:26:25;4.53;;;1.60;;
25015;SDS011;13029;46.286;7.488;2022-09-09T08:28:56;5.07;;;1.70;;
25015;SDS011;13029;46.286;7.488;2022-09-09T08:31:23;6.45;;;1.67;;
25015;SDS011;13029;46.286;7.488;2022-09-09T08:33:50;6.50;;;1.85;;
25015;SDS011;13029;46.286;7.488;2022-09-09T08:36:19;3.13;;;1.30;;
25015;SDS011;13029;46.286;7.488;2022-09-09T08:38:47;3.88;;;1.60;;
25015;SDS011;13029;46.286;7.488;2022-09-09T08:49:16;5.05;;;1.55;;
25015;SDS011;13029;46.286;7.488;2022-09-09T08:52:02;2.65;;;1.23;;
25015;SDS011;13029;46.286;7.488;2022-09-09T08:54:29;3.45;;;1.30;;
25015;SDS011;13029;46.286;7.488;2022-09-09T08:59:23;4.33;;;1.00;;
25015;SDS011;13029;46.286;7.488;2022-09-09T09:07:33;2.92;;;1.10;;
25015;SDS011;13029;46.286;7.488;2022-09-09T09:12:51;2.70;;;0.93;;
25015;SDS011;13029;46.286;7.488;2022-09-09T09:15:18;2.97;;;0.90;;
25015;SDS011;13029;46.286;7.488;2022-09-09T09:17:45;2.45;;;0.88;;
25015;SDS011;13029;46.286;7.488;2022-09-09T09:20:12;4.05;;;1.10;;
25015;SDS011;13029;46.286;7.488;2022-09-09T09:22:47;3.58;;;1.58;;
25015;SDS011;13029;46.286;7.488;2022-09-09T09:25:17;2.55;;;0.80;;
25015;SDS011;13029;46.286;7.488;2022-09-09T09:28:03;5.78;;;1.00;;
25015;SDS011;13029;46.286;7.488;2022-09-09T09:33:28;3.85;;;1.08;;
25015;SDS011;13029;46.286;7.488;2022-09-09T09:36:15;3.65;;;1.00;;
25015;SDS011;13029;46.286;7.488;2022-09-09T09:38:57;3.05;;;1.10;;
25015;SDS011;13029;46.286;7.488;2022-09-09T09:43:56;1.95;;;0.75;;
25015;SDS011;13029;46.286;7.488;2022-09-09T09:46:22;2.20;;;0.88;;
25015;SDS011;13029;46.286;7.488;2022-09-09T09:49:03;1.33;;;0.60;;
25015;SDS011;13029;46.286;7.488;2022-09-09T09:51:30;3.03;;;0.90;;
25015;SDS011;13029;46.286;7.488;2022-09-09T09:56:38;4.45;;;1.13;;
25015;SDS011;13029;46.286;7.488;2022-09-09T09:59:04;2.63;;;2.28;;
25015;SDS011;13029;46.286;7.488;2022-09-09T10:01:30;4.70;;;2.95;;
25015;SDS011;13029;46.286;7.488;2022-09-09T10:04:00;3.45;;;1.20;;
25015;SDS011;13029;46.286;7.488;2022-09-09T10:06:32;2.10;;;0.77;;
25015;SDS011;13029;46.286;7.488;2022-09-09T10:19:37;1.58;;;0.93;;
25015;SDS011;13029;46.286;7.488;2022-09-09T10:46:12;3.28;;;0.70;;
25015;SDS011;13029;46.286;7.488;2022-09-09T10:54:13;1.58;;;0.60;;
25015;SDS011;13029;46.286;7.488;2022-09-09T10:56:51;2.20;;;0.60;;
25015;SDS011;13029;46.286;7.488;2022-09-09T10:59:22;4.38;;;0.70;;
25015;SDS011;13029;46.286;7.488;2022-09-09T11:04:29;3.35;;;0.80;;
25015;SDS011;13029;46.286;7.488;2022-09-09T11:06:59;1.83;;;0.63;;
25015;SDS011;13029;46.286;7.488;2022-09-09T11:09:30;4.03;;;0.80;;
25015;SDS011;13029;46.286;7.488;2022-09-09T11:12:02;1.92;;;0.65;;
25015;SDS011;13029;46.286;7.488;2022-09-09T11:17:00;3.67;;;0.90;;
25015;SDS011;13029;46.286;7.488;2022-09-09T11:19:41;3.45;;;0.80;;
25015;SDS011;13029;46.286;7.488;2022-09-09T11:22:15;2.85;;;0.70;;
25015;SDS011;13029;46.286;7.488;2022-09-09T11:24:51;1.02;;;0.60;;
25015;SDS011;13029;46.286;7.488;2022-09-09T11:27:30;2.25;;;0.60;;
25015;SDS011;13029;46.286;7.488;2022-09-09T11:30:05;1.90;;;0.50;;
25015;SDS011;13029;46.286;7.488;2022-09-09T11:32:46;2.45;;;0.68;;
25015;SDS011;13029;46.286;7.488;2022-09-09T11:41:05;4.50;;;0.60;;
25015;SDS011;13029;46.286;7.488;2022-09-09T11:43:42;4.75;;;0.60;;
25015;SDS011;13029;46.286;7.488;2022-09-09T11:46:08;7.50;;;0.70;;
25015;SDS011;13029;46.286;7.488;2022-09-09T11:48:35;2.03;;;0.70;;
25015;SDS011;13029;46.286;7.488;2022-09-09T11:51:03;2.42;;;0.55;;
25015;SDS011;13029;46.286;7.488;2022-09-09T11:53:32;3.40;;;0.60;;
25015;SDS011;13029;46.286;7.488;2022-09-09T11:56:09;7.22;;;0.73;;
25015;SDS011;13029;46.286;7.488;2022-09-09T11:58:36;3.22;;;0.88;;
25015;SDS011;13029;46.286;7.488;2022-09-09T12:01:13;1.73;;;0.43;;
25015;SDS011;13029;46.286;7.488;2022-09-09T12:03:44;6.25;;;0.50;;
25015;SDS011;13029;46.286;7.488;2022-09-09T12:06:11;1.98;;;0.43;;
25015;SDS011;13029;46.286;7.488;2022-09-09T12:08:39;1.55;;;0.40;;
25015;SDS011;13029;46.286;7.488;2022-09-09T12:11:07;1.95;;;0.60;;
25015;SDS011;13029;46.286;7.488;2022-09-09T12:13:32;4.03;;;0.40;;
25015;SDS011;13029;46.286;7.488;2022-09-09T12:15:59;3.60;;;0.50;;
25015;SDS011;13029;46.286;7.488;2022-09-09T12:18:37;5.22;;;0.50;;
25015;SDS011;13029;46.286;7.488;2022-09-09T12:23:55;1.95;;;0.47;;
25015;SDS011;13029;46.286;7.488;2022-09-09T12:32:14;2.83;;;0.40;;
25015;SDS011;13029;46.286;7.488;2022-09-09T12:34:50;1.77;;;0.50;;
25015;SDS011;13029;46.286;7.488;2022-09-09T12:37:41;4.38;;;0.52;;
25015;SDS011;13029;46.286;7.488;2022-09-09T12:40:23;2.85;;;0.57;;
25015;SDS011;13029;46.286;7.488;2022-09-09T12:42:50;3.33;;;0.57;;
25015;SDS011;13029;46.286;7.488;2022-09-09T12:45:25;1.20;;;0.68;;
25015;SDS011;13029;46.286;7.488;2022-09-09T12:47:58;0.98;;;0.40;;
25015;SDS011;13029;46.286;7.488;2022-09-09T12:50:26;2.50;;;0.45;;
25015;SDS011;13029;46.286;7.488;2022-09-09T12:52:57;1.27;;;0.50;;
25015;SDS011;13029;46.286;7.488;2022-09-09T12:55:25;3.85;;;0.60;;
25015;SDS011;13029;46.286;7.488;2022-09-09T12:57:55;0.52;;;0.30;;
25015;SDS011;13029;46.286;7.488;2022-09-09T13:00:21;2.90;;;0.60;;
25015;SDS011;13029;46.286;7.488;2022-09-09T13:05:19;2.10;;;0.40;;
25015;SDS011;13029;46.286;7.488;2022-09-09T13:07:46;1.15;;;0.40;;
25015;SDS011;13029;46.286;7.488;2022-09-09T13:10:12;2.90;;;0.82;;
25015;SDS011;13029;46.286;7.488;2022-09-09T13:12:38;1.77;;;0.50;;
25015;SDS011;13029;46.286;7.488;2022-09-09T13:15:04;1.48;;;0.50;;
25015;SDS011;13029;46.286;7.488;2022-09-09T13:17:40;4.18;;;0.93;;
25015;SDS011;13029;46.286;7.488;2022-09-09T13:20:05;1.88;;;0.60;;
25015;SDS011;13029;46.286;7.488;2022-09-09T13:22:35;2.58;;;0.57;;
25015;SDS011;13029;46.286;7.488;2022-09-09T13:27:38;2.00;;;0.55;;
25015;SDS011;13029;46.286;7.488;2022-09-09T13:35:45;2.45;;;0.50;;
25015;SDS011;13029;46.286;7.488;2022-09-09T13:38:16;1.50;;;0.60;;
25015;SDS011;13029;46.286;7.488;2022-09-09T13:43:28;1.83;;;0.65;;
25015;SDS011;13029;46.286;7.488;2022-09-09T13:46:03;1.88;;;0.50;;
25015;SDS011;13029;46.286;7.488;2022-09-09T13:48:30;3.13;;;0.50;;
25015;SDS011;13029;46.286;7.488;2022-09-09T13:51:00;2.00;;;0.60;;
25015;SDS011;13029;46.286;7.488;2022-09-09T13:53:28;2.67;;;0.50;;
25015;SDS011;13029;46.286;7.488;2022-09-09T13:55:54;2.05;;;0.60;;
25015;SDS011;13029;46.286;7.488;2022-09-09T13:58:19;1.13;;;0.40;;
25015;SDS011;13029;46.286;7.488;2022-09-09T14:00:46;2.60;;;0.30;;
25015;SDS011;13029;46.286;7.488;2022-09-09T14:03:12;1.65;;;0.63;;
25015;SDS011;13029;46.286;7.488;2022-09-09T14:05:37;0.65;;;0.40;;
25015;SDS011;13029;46.286;7.488;2022-09-09T14:08:03;0.68;;;0.40;;
25015;SDS011;13029;46.286;7.488;2022-09-09T14:10:29;0.85;;;0.55;;
25015;SDS011;13029;46.286;7.488;2022-09-09T14:12:54;1.55;;;0.43;;
25015;SDS011;13029;46.286;7.488;2022-09-09T14:15:21;1.40;;;0.47;;
25015;SDS011;13029;46.286;7.488;2022-09-09T14:17:46;3.45;;;0.52;;
25015;SDS011;13029;46.286;7.488;2022-09-09T14:20:13;3.10;;;0.47;;
25015;SDS011;13029;46.286;7.488;2022-09-09T14:22:40;2.80;;;0.55;;
25015;SDS011;13029;46.286;7.488;2022-09-09T14:25:06;1.85;;;0.50;;
25015;SDS011;13029;46.286;7.488;2022-09-09T14:27:31;1.95;;;0.60;;
25015;SDS011;13029;46.286;7.488;2022-09-09T14:29:57;0.98;;;0.70;;
25015;SDS011;13029;46.286;7.488;2022-09-09T14:32:22;1.63;;;0.40;;
25015;SDS011;13029;46.286;7.488;2022-09-09T14:34:48;1.48;;;0.32;;
25015;SDS011;13029;46.286;7.488;2022-09-09T14:37:17;2.83;;;0.40;;
25015;SDS011;13029;46.286;7.488;2022-09-09T14:39:42;0.90;;;0.55;;
25015;SDS011;13029;46.286;7.488;2022-09-09T14:42:09;0.77;;;0.60;;
25015;SDS011;13029;46.286;7.488;2022-09-09T14:44:37;2.30;;;0.50;;
25015;SDS011;13029;46.286;7.488;2022-09-09T14:47:03;0.98;;;0.43;;
25015;SDS011;13029;46.286;7.488;2022-09-09T14:49:33;2.00;;;0.50;;
25015;SDS011;13029;46.286;7.488;2022-09-09T14:51:58;1.33;;;0.30;;
25015;SDS011;13029;46.286;7.488;2022-09-09T14:54:23;1.63;;;0.50;;
25015;SDS011;13029;46.286;7.488;2022-09-09T14:56:49;0.93;;;0.50;;
25015;SDS011;13029;46.286;7.488;2022-09-09T14:59:14;1.52;;;0.40;;
25015;SDS011;13029;46.286;7.488;2022-09-09T15:01:39;1.42;;;0.40;;
25015;SDS011;13029;46.286;7.488;2022-09-09T15:04:05;1.83;;;0.50;;
25015;SDS011;13029;46.286;7.488;2022-09-09T15:06:32;1.45;;;0.40;;
25015;SDS011;13029;46.286;7.488;2022-09-09T15:08:59;2.00;;;0.50;;
25015;SDS011;13029;46.286;7.488;2022-09-09T15:11:33;1.20;;;0.55;;
25015;SDS011;13029;46.286;7.488;2022-09-09T15:14:02;2.80;;;0.43;;
25015;SDS011;13029;46.286;7.488;2022-09-09T15:16:31;2.10;;;0.40;;
25015;SDS011;13029;46.286;7.488;2022-09-09T15:18:58;3.33;;;0.50;;
25015;SDS011;13029;46.286;7.488;2022-09-09T15:21:25;1.13;;;0.50;;
25015;SDS011;13029;46.286;7.488;2022-09-09T15:23:52;1.27;;;0.40;;
25015;SDS011;13029;46.286;7.488;2022-09-09T15:26:17;2.65;;;0.50;;
25015;SDS011;13029;46.286;7.488;2022-09-09T15:28:43;1.52;;;0.43;;
25015;SDS011;13029;46.286;7.488;2022-09-09T15:31:13;0.90;;;0.55;;
25015;SDS011;13029;46.286;7.488;2022-09-09T15:33:42;1.38;;;0.45;;
25015;SDS011;13029;46.286;7.488;2022-09-09T15:36:14;2.45;;;0.60;;
25015;SDS011;13029;46.286;7.488;2022-09-09T15:38:43;1.77;;;0.60;;
25015;SDS011;13029;46.286;7.488;2022-09-09T15:41:09;1.67;;;0.52;;
25015;SDS011;13029;46.286;7.488;2022-09-09T15:43:35;2.05;;;0.70;;
25015;SDS011;13029;46.286;7.488;2022-09-09T15:46:05;1.27;;;0.65;;
25015;SDS011;13029;46.286;7.488;2022-09-09T15:48:56;0.50;;;0.30;;
25015;SDS011;13029;46.286;7.488;2022-09-09T15:51:34;1.88;;;0.60;;
25015;SDS011;13029;46.286;7.488;2022-09-09T15:54:00;0.90;;;0.50;;
25015;SDS011;13029;46.286;7.488;2022-09-09T15:56:25;1.80;;;0.40;;
25015;SDS011;13029;46.286;7.488;2022-09-09T15:58:52;0.93;;;0.43;;
25015;SDS011;13029;46.286;7.488;2022-09-09T16:01:19;1.88;;;0.50;;
25015;SDS011;13029;46.286;7.488;2022-09-09T16:03:44;1.80;;;0.55;;
25015;SDS011;13029;46.286;7.488;2022-09-09T16:06:11;1.10;;;0.50;;
25015;SDS011;13029;46.286;7.488;2022-09-09T16:08:43;0.98;;;0.47;;
25015;SDS011;13029;46.286;7.488;2022-09-09T16:11:11;2.78;;;0.50;;
25015;SDS011;13029;46.286;7.488;2022-09-09T16:13:40;1.63;;;0.60;;
25015;SDS011;13029;46.286;7.488;2022-09-09T16:16:06;1.52;;;0.60;;
25015;SDS011;13029;46.286;7.488;2022-09-09T16:18:38;0.93;;;0.50;;
25015;SDS011;13029;46.286;7.488;2022-09-09T16:21:05;4.20;;;0.75;;
25015;SDS011;13029;46.286;7.488;2022-09-09T16:23:33;0.85;;;0.40;;
25015;SDS011;13029;46.286;7.488;2022-09-09T16:25:59;1.27;;;0.50;;
25015;SDS011;13029;46.286;7.488;2022-09-09T16:28:24;0.60;;;0.40;;
25015;SDS011;13029;46.286;7.488;2022-09-09T16:30:50;0.68;;;0.40;;
25015;SDS011;13029;46.286;7.488;2022-09-09T16:33:16;1.58;;;0.47;;
25015;SDS011;13029;46.286;7.488;2022-09-09T16:35:41;2.85;;;0.43;;
25015;SDS011;13029;46.286;7.488;2022-09-09T16:38:07;1.58;;;0.60;;
25015;SDS011;13029;46.286;7.488;2022-09-09T16:40:36;0.98;;;0.40;;
25015;SDS011;13029;46.286;7.488;2022-09-09T16:43:04;2.13;;;0.50;;
25015;SDS011;13029;46.286;7.488;2022-09-09T16:45:30;1.30;;;0.30;;
25015;SDS011;13029;46.286;7.488;2022-09-09T16:47:57;0.63;;;0.40;;
25015;SDS011;13029;46.286;7.488;2022-09-09T16:50:22;1.02;;;0.40;;
25015;SDS011;13029;46.286;7.488;2022-09-09T16:52:47;1.85;;;0.40;;
25015;SDS011;13029;46.286;7.488;2022-09-09T16:55:13;2.67;;;0.60;;
25015;SDS011;13029;46.286;7.488;2022-09-09T16:57:38;1.58;;;0.50;;
25015;SDS011;13029;46.286;7.488;2022-09-09T17:00:04;2.60;;;0.60;;
25015;SDS011;13029;46.286;7.488;2022-09-09T17:02:31;2.70;;;0.43;;
25015;SDS011;13029;46.286;7.488;2022-09-09T17:04:57;0.65;;;0.40;;
25015;SDS011;13029;46.286;7.488;2022-09-09T17:07:22;1.00;;;0.35;;
25015;SDS011;13029;46.286;7.488;2022-09-09T17:09:48;3.88;;;0.52;;
25015;SDS011;13029;46.286;7.488;2022-09-09T17:12:13;1.00;;;0.50;;
25015;SDS011;13029;46.286;7.488;2022-09-09T17:14:41;2.28;;;0.50;;
25015;SDS011;13029;46.286;7.488;2022-09-09T17:17:06;2.47;;;0.63;;
25015;SDS011;13029;46.286;7.488;2022-09-09T17:19:32;0.73;;;0.40;;
25015;SDS011;13029;46.286;7.488;2022-09-09T17:21:57;0.75;;;0.40;;